This is the latest recevied weather packets stored in our database for station/object DG5MNJ. If no packets are shown the sender has not sent any weather packets the latest 10 day(s).
| Time | Temp. | Humidity | Pressure | Rain* | Wind** | Luminosity | Snow |
|---|---|---|---|---|---|---|---|
| 1777466123 | 16.11° C | 36% | 1018.8 hPa | 0 mm | - | 824 W/m² | - |
| 1777463702 | 15.56° C | 36% | 1018.7 hPa | 0 mm | - | 869 W/m² | - |
| 1777460402 | 14.44° C | 37% | 1019.1 hPa | 0 mm | - | 893 W/m² | - |
| 1777459502 | 14.44° C | 38% | 1019 hPa | 0 mm | - | 831 W/m² | - |
| 1777458302 | 14.44° C | 38% | 1019 hPa | 0 mm | - | 905 W/m² | - |
| 1777458002 | 14.44° C | 38% | 1019.1 hPa | 0 mm | - | 874 W/m² | - |
| 1777457702 | 14.44° C | 37% | 1019.1 hPa | 0 mm | - | 896 W/m² | - |
| 1777456202 | 13.89° C | 38% | 1019.1 hPa | 0 mm | - | 849 W/m² | - |
| 1777455602 | 13.33° C | 38% | 1019 hPa | 0 mm | - | 847 W/m² | - |
| 1777455002 | 12.78° C | 40% | 1019 hPa | 0 mm | - | 824 W/m² | - |
| 1777453822 | 11.67° C | 40% | 1018.9 hPa | 0 mm | - | 769 W/m² | - |
| 1777453502 | 11.67° C | 40% | 1019 hPa | 0 mm | - | 463 W/m² | - |
| 1777451702 | 11.67° C | 43% | 1018.8 hPa | 0 mm | - | 503 W/m² | - |
| 1777448722 | 10.56° C | 46% | 1018.8 hPa | 0 mm | - | 518 W/m² | - |
| 1777447502 | 10° C | 48% | 1018.8 hPa | 0 mm | - | 352 W/m² | - |
| 1777443904 | 8.89° C | 52% | 1018.5 hPa | 0 mm | - | 179 W/m² | - |
| 1777443303 | 8.89° C | 52% | 1018.5 hPa | 0 mm | - | 216 W/m² | - |
| 1777442703 | 8.89° C | 54% | 1018.4 hPa | 0 mm | - | 169 W/m² | - |
| 1777439702 | 8.89° C | 57% | 1017.9 hPa | 0 mm | - | 60 W/m² | - |
| 1777438802 | 8.89° C | 57% | 1017.5 hPa | 0 mm | - | 38 W/m² | - |
| 1777432502 | 10° C | 56% | 1016.5 hPa | 0 mm | - | 0 W/m² | - |
| 1777432203 | 10° C | 56% | 1016.7 hPa | 0 mm | - | 0 W/m² | - |
| 1777431302 | 10° C | 55% | 1016.8 hPa | 0 mm | - | 0 W/m² | - |
| 1777431022 | 10° C | 54% | 1016.5 hPa | 0 mm | - | 0 W/m² | - |
| 1777425902 | 10.56° C | 54% | 1016.3 hPa | 0 mm | - | 0 W/m² | - |
* Rain latest hour (hover to see other rain measurements)
** Current wind speed in m/s (hover to see current wind gust speed)